sensor_id;sensor_type;location;lat;lon;timestamp;P1;durP1;ratioP1;P2;durP2;ratioP2
2213;SDS011;1113;42.018;23.986;2023-03-01T00:01:36;9.82;;;7.40;;
2213;SDS011;1113;42.018;23.986;2023-03-01T00:04:03;10.30;;;8.40;;
2213;SDS011;1113;42.018;23.986;2023-03-01T00:06:30;14.00;;;10.27;;
2213;SDS011;1113;42.018;23.986;2023-03-01T00:08:56;17.75;;;11.18;;
2213;SDS011;1113;42.018;23.986;2023-03-01T00:11:24;13.13;;;9.10;;
2213;SDS011;1113;42.018;23.986;2023-03-01T00:13:55;15.43;;;10.13;;
2213;SDS011;1113;42.018;23.986;2023-03-01T00:16:24;14.57;;;8.93;;
2213;SDS011;1113;42.018;23.986;2023-03-01T00:18:53;11.80;;;7.38;;
2213;SDS011;1113;42.018;23.986;2023-03-01T00:21:20;12.27;;;8.35;;
2213;SDS011;1113;42.018;23.986;2023-03-01T00:23:48;12.02;;;8.70;;
2213;SDS011;1113;42.018;23.986;2023-03-01T00:26:16;14.40;;;9.57;;
2213;SDS011;1113;42.018;23.986;2023-03-01T00:28:44;12.05;;;7.93;;
2213;SDS011;1113;42.018;23.986;2023-03-01T00:31:13;6.97;;;4.45;;
2213;SDS011;1113;42.018;23.986;2023-03-01T00:33:42;8.02;;;4.15;;
2213;SDS011;1113;42.018;23.986;2023-03-01T00:36:09;6.40;;;4.40;;
2213;SDS011;1113;42.018;23.986;2023-03-01T00:38:37;6.10;;;3.90;;
2213;SDS011;1113;42.018;23.986;2023-03-01T00:41:06;8.27;;;4.65;;
2213;SDS011;1113;42.018;23.986;2023-03-01T00:43:34;7.25;;;4.90;;
2213;SDS011;1113;42.018;23.986;2023-03-01T00:46:01;9.15;;;6.07;;
2213;SDS011;1113;42.018;23.986;2023-03-01T00:48:30;9.00;;;5.72;;
2213;SDS011;1113;42.018;23.986;2023-03-01T00:51:03;9.55;;;5.75;;
2213;SDS011;1113;42.018;23.986;2023-03-01T00:53:31;8.77;;;5.18;;
2213;SDS011;1113;42.018;23.986;2023-03-01T00:55:58;11.57;;;7.95;;
2213;SDS011;1113;42.018;23.986;2023-03-01T00:58:25;8.25;;;6.25;;
2213;SDS011;1113;42.018;23.986;2023-03-01T01:00:52;8.88;;;6.10;;
2213;SDS011;1113;42.018;23.986;2023-03-01T01:03:19;9.45;;;6.18;;
2213;SDS011;1113;42.018;23.986;2023-03-01T01:05:47;9.25;;;6.63;;
2213;SDS011;1113;42.018;23.986;2023-03-01T01:08:14;8.15;;;5.15;;
2213;SDS011;1113;42.018;23.986;2023-03-01T01:10:43;8.73;;;5.75;;
2213;SDS011;1113;42.018;23.986;2023-03-01T01:13:09;6.13;;;4.15;;
2213;SDS011;1113;42.018;23.986;2023-03-01T01:15:36;7.43;;;4.85;;
2213;SDS011;1113;42.018;23.986;2023-03-01T01:18:03;5.57;;;3.67;;
2213;SDS011;1113;42.018;23.986;2023-03-01T01:20:30;4.97;;;3.17;;
2213;SDS011;1113;42.018;23.986;2023-03-01T01:22:58;4.55;;;3.03;;
2213;SDS011;1113;42.018;23.986;2023-03-01T01:25:25;3.15;;;2.00;;
2213;SDS011;1113;42.018;23.986;2023-03-01T01:27:52;4.30;;;2.95;;
2213;SDS011;1113;42.018;23.986;2023-03-01T01:30:18;6.57;;;3.92;;
2213;SDS011;1113;42.018;23.986;2023-03-01T01:32:45;6.35;;;5.47;;
2213;SDS011;1113;42.018;23.986;2023-03-01T01:35:12;7.07;;;3.85;;
2213;SDS011;1113;42.018;23.986;2023-03-01T01:37:39;8.15;;;4.00;;
2213;SDS011;1113;42.018;23.986;2023-03-01T01:40:08;9.70;;;6.15;;
2213;SDS011;1113;42.018;23.986;2023-03-01T01:42:36;9.52;;;6.55;;
2213;SDS011;1113;42.018;23.986;2023-03-01T01:47:54;7.93;;;5.32;;
2213;SDS011;1113;42.018;23.986;2023-03-01T01:50:23;8.45;;;3.60;;
2213;SDS011;1113;42.018;23.986;2023-03-01T01:52:51;5.25;;;4.20;;
2213;SDS011;1113;42.018;23.986;2023-03-01T01:55:21;7.28;;;3.80;;
2213;SDS011;1113;42.018;23.986;2023-03-01T01:57:53;6.50;;;4.85;;
2213;SDS011;1113;42.018;23.986;2023-03-01T02:00:24;11.30;;;6.72;;
2213;SDS011;1113;42.018;23.986;2023-03-01T02:02:54;11.40;;;7.05;;
2213;SDS011;1113;42.018;23.986;2023-03-01T02:05:25;12.00;;;7.32;;
2213;SDS011;1113;42.018;23.986;2023-03-01T02:07:54;9.63;;;6.32;;
2213;SDS011;1113;42.018;23.986;2023-03-01T02:10:24;11.02;;;6.75;;
2213;SDS011;1113;42.018;23.986;2023-03-01T02:12:53;11.38;;;7.18;;
2213;SDS011;1113;42.018;23.986;2023-03-01T02:15:22;13.00;;;8.07;;
2213;SDS011;1113;42.018;23.986;2023-03-01T02:17:50;9.95;;;6.05;;
2213;SDS011;1113;42.018;23.986;2023-03-01T02:20:20;10.07;;;6.03;;
2213;SDS011;1113;42.018;23.986;2023-03-01T02:22:52;8.88;;;5.25;;
2213;SDS011;1113;42.018;23.986;2023-03-01T02:25:33;7.00;;;4.60;;
2213;SDS011;1113;42.018;23.986;2023-03-01T02:28:08;5.10;;;3.95;;
2213;SDS011;1113;42.018;23.986;2023-03-01T02:30:39;3.90;;;2.63;;
2213;SDS011;1113;42.018;23.986;2023-03-01T02:33:27;4.18;;;2.70;;
2213;SDS011;1113;42.018;23.986;2023-03-01T02:35:53;12.27;;;4.47;;
2213;SDS011;1113;42.018;23.986;2023-03-01T02:38:21;6.72;;;4.07;;
2213;SDS011;1113;42.018;23.986;2023-03-01T02:40:49;8.40;;;4.20;;
2213;SDS011;1113;42.018;23.986;2023-03-01T02:43:17;10.63;;;4.88;;
2213;SDS011;1113;42.018;23.986;2023-03-01T02:45:49;11.02;;;6.35;;
2213;SDS011;1113;42.018;23.986;2023-03-01T02:48:16;12.73;;;6.35;;
2213;SDS011;1113;42.018;23.986;2023-03-01T02:50:51;5.60;;;3.75;;
2213;SDS011;1113;42.018;23.986;2023-03-01T02:53:32;8.35;;;4.85;;
2213;SDS011;1113;42.018;23.986;2023-03-01T02:56:04;9.52;;;4.43;;
2213;SDS011;1113;42.018;23.986;2023-03-01T02:58:38;7.18;;;4.97;;
2213;SDS011;1113;42.018;23.986;2023-03-01T03:01:11;6.53;;;4.63;;
2213;SDS011;1113;42.018;23.986;2023-03-01T03:03:40;6.63;;;4.30;;
2213;SDS011;1113;42.018;23.986;2023-03-01T03:06:07;8.07;;;4.70;;
2213;SDS011;1113;42.018;23.986;2023-03-01T03:08:34;6.25;;;4.45;;
2213;SDS011;1113;42.018;23.986;2023-03-01T03:11:01;8.45;;;5.40;;
2213;SDS011;1113;42.018;23.986;2023-03-01T03:13:27;7.68;;;4.50;;
2213;SDS011;1113;42.018;23.986;2023-03-01T03:15:54;8.40;;;4.57;;
2213;SDS011;1113;42.018;23.986;2023-03-01T03:18:23;6.63;;;4.22;;
2213;SDS011;1113;42.018;23.986;2023-03-01T03:20:52;9.35;;;5.55;;
2213;SDS011;1113;42.018;23.986;2023-03-01T03:23:20;7.55;;;4.70;;
2213;SDS011;1113;42.018;23.986;2023-03-01T03:25:48;9.27;;;5.22;;
2213;SDS011;1113;42.018;23.986;2023-03-01T03:28:15;10.18;;;5.22;;
2213;SDS011;1113;42.018;23.986;2023-03-01T03:30:42;11.50;;;6.63;;
2213;SDS011;1113;42.018;23.986;2023-03-01T03:33:10;7.97;;;5.90;;
2213;SDS011;1113;42.018;23.986;2023-03-01T03:35:40;8.20;;;6.05;;
2213;SDS011;1113;42.018;23.986;2023-03-01T03:38:09;7.95;;;7.03;;
2213;SDS011;1113;42.018;23.986;2023-03-01T03:40:43;9.07;;;6.90;;
2213;SDS011;1113;42.018;23.986;2023-03-01T03:43:11;5.80;;;4.63;;
2213;SDS011;1113;42.018;23.986;2023-03-01T03:45:40;8.88;;;5.25;;
2213;SDS011;1113;42.018;23.986;2023-03-01T03:48:08;7.20;;;4.38;;
2213;SDS011;1113;42.018;23.986;2023-03-01T03:50:35;8.25;;;5.50;;
2213;SDS011;1113;42.018;23.986;2023-03-01T03:53:05;8.93;;;5.60;;
2213;SDS011;1113;42.018;23.986;2023-03-01T03:55:34;9.65;;;6.45;;
2213;SDS011;1113;42.018;23.986;2023-03-01T03:58:04;9.35;;;7.03;;
2213;SDS011;1113;42.018;23.986;2023-03-01T04:00:35;22.27;;;8.40;;
2213;SDS011;1113;42.018;23.986;2023-03-01T04:03:04;13.32;;;10.77;;
2213;SDS011;1113;42.018;23.986;2023-03-01T04:05:41;11.73;;;8.80;;
2213;SDS011;1113;42.018;23.986;2023-03-01T04:08:10;12.30;;;8.45;;
2213;SDS011;1113;42.018;23.986;2023-03-01T04:10:37;11.38;;;8.07;;
2213;SDS011;1113;42.018;23.986;2023-03-01T04:13:05;11.32;;;7.25;;
2213;SDS011;1113;42.018;23.986;2023-03-01T04:15:49;10.25;;;7.15;;
2213;SDS011;1113;42.018;23.986;2023-03-01T04:18:20;14.48;;;5.90;;
2213;SDS011;1113;42.018;23.986;2023-03-01T04:20:49;9.60;;;6.00;;
2213;SDS011;1113;42.018;23.986;2023-03-01T04:23:28;9.98;;;6.93;;
2213;SDS011;1113;42.018;23.986;2023-03-01T04:25:55;10.50;;;8.05;;
2213;SDS011;1113;42.018;23.986;2023-03-01T04:28:25;11.93;;;8.73;;
2213;SDS011;1113;42.018;23.986;2023-03-01T04:30:53;13.65;;;10.52;;
2213;SDS011;1113;42.018;23.986;2023-03-01T04:33:21;11.85;;;9.02;;
2213;SDS011;1113;42.018;23.986;2023-03-01T04:35:49;12.20;;;10.05;;
2213;SDS011;1113;42.018;23.986;2023-03-01T04:38:16;11.75;;;8.35;;
2213;SDS011;1113;42.018;23.986;2023-03-01T04:40:45;14.57;;;10.85;;
2213;SDS011;1113;42.018;23.986;2023-03-01T04:43:12;16.83;;;11.70;;
2213;SDS011;1113;42.018;23.986;2023-03-01T04:45:40;17.30;;;13.65;;
2213;SDS011;1113;42.018;23.986;2023-03-01T04:48:07;15.13;;;9.88;;
2213;SDS011;1113;42.018;23.986;2023-03-01T04:50:34;13.48;;;10.27;;
2213;SDS011;1113;42.018;23.986;2023-03-01T04:53:01;16.95;;;10.55;;
2213;SDS011;1113;42.018;23.986;2023-03-01T04:55:28;13.25;;;8.60;;
2213;SDS011;1113;42.018;23.986;2023-03-01T04:57:57;11.68;;;8.15;;
2213;SDS011;1113;42.018;23.986;2023-03-01T05:00:24;15.32;;;11.32;;
2213;SDS011;1113;42.018;23.986;2023-03-01T05:06:41;16.85;;;12.50;;
2213;SDS011;1113;42.018;23.986;2023-03-01T05:09:18;18.80;;;12.18;;
2213;SDS011;1113;42.018;23.986;2023-03-01T05:11:57;18.00;;;13.02;;
2213;SDS011;1113;42.018;23.986;2023-03-01T05:14:31;22.92;;;13.30;;
2213;SDS011;1113;42.018;23.986;2023-03-01T05:17:32;17.55;;;12.57;;
2213;SDS011;1113;42.018;23.986;2023-03-01T05:19:59;14.18;;;11.10;;
2213;SDS011;1113;42.018;23.986;2023-03-01T05:22:26;18.48;;;13.15;;
2213;SDS011;1113;42.018;23.986;2023-03-01T05:24:53;19.75;;;12.57;;
2213;SDS011;1113;42.018;23.986;2023-03-01T05:27:20;16.77;;;12.32;;
2213;SDS011;1113;42.018;23.986;2023-03-01T05:29:49;17.02;;;13.05;;
2213;SDS011;1113;42.018;23.986;2023-03-01T05:32:15;20.95;;;14.60;;
2213;SDS011;1113;42.018;23.986;2023-03-01T05:34:42;27.50;;;18.42;;
2213;SDS011;1113;42.018;23.986;2023-03-01T05:37:11;29.50;;;21.30;;
2213;SDS011;1113;42.018;23.986;2023-03-01T05:39:38;32.90;;;22.90;;
2213;SDS011;1113;42.018;23.986;2023-03-01T05:42:09;32.85;;;20.80;;
2213;SDS011;1113;42.018;23.986;2023-03-01T05:44:37;28.02;;;21.25;;
2213;SDS011;1113;42.018;23.986;2023-03-01T05:47:05;23.40;;;18.10;;
2213;SDS011;1113;42.018;23.986;2023-03-01T05:49:32;27.70;;;19.13;;
2213;SDS011;1113;42.018;23.986;2023-03-01T05:51:59;35.53;;;24.30;;
2213;SDS011;1113;42.018;23.986;2023-03-01T05:54:26;37.95;;;26.17;;
2213;SDS011;1113;42.018;23.986;2023-03-01T05:56:53;43.35;;;31.45;;
2213;SDS011;1113;42.018;23.986;2023-03-01T05:59:21;32.78;;;23.73;;
2213;SDS011;1113;42.018;23.986;2023-03-01T06:01:48;36.20;;;25.40;;
2213;SDS011;1113;42.018;23.986;2023-03-01T06:04:16;33.10;;;22.65;;
2213;SDS011;1113;42.018;23.986;2023-03-01T06:06:43;33.88;;;26.45;;
2213;SDS011;1113;42.018;23.986;2023-03-01T06:09:10;35.25;;;26.55;;
2213;SDS011;1113;42.018;23.986;2023-03-01T06:11:36;38.63;;;27.13;;
2213;SDS011;1113;42.018;23.986;2023-03-01T06:14:03;37.67;;;26.75;;
2213;SDS011;1113;42.018;23.986;2023-03-01T06:16:33;32.05;;;25.10;;
2213;SDS011;1113;42.018;23.986;2023-03-01T06:18:59;31.40;;;24.05;;
2213;SDS011;1113;42.018;23.986;2023-03-01T06:21:28;35.38;;;23.40;;
2213;SDS011;1113;42.018;23.986;2023-03-01T06:23:55;32.55;;;23.60;;
2213;SDS011;1113;42.018;23.986;2023-03-01T06:26:21;30.30;;;21.92;;
2213;SDS011;1113;42.018;23.986;2023-03-01T06:28:48;30.52;;;20.10;;
2213;SDS011;1113;42.018;23.986;2023-03-01T06:31:15;34.17;;;21.88;;
2213;SDS011;1113;42.018;23.986;2023-03-01T06:33:42;29.17;;;21.15;;
2213;SDS011;1113;42.018;23.986;2023-03-01T06:36:10;29.45;;;20.95;;
2213;SDS011;1113;42.018;23.986;2023-03-01T06:38:38;31.85;;;22.00;;
2213;SDS011;1113;42.018;23.986;2023-03-01T06:41:05;39.78;;;25.23;;
2213;SDS011;1113;42.018;23.986;2023-03-01T06:43:33;40.70;;;28.60;;
2213;SDS011;1113;42.018;23.986;2023-03-01T06:46:00;39.03;;;27.40;;
2213;SDS011;1113;42.018;23.986;2023-03-01T06:48:29;42.67;;;30.05;;
2213;SDS011;1113;42.018;23.986;2023-03-01T06:50:59;41.55;;;29.70;;
2213;SDS011;1113;42.018;23.986;2023-03-01T06:53:26;45.67;;;31.58;;
2213;SDS011;1113;42.018;23.986;2023-03-01T06:55:55;38.28;;;27.08;;
2213;SDS011;1113;42.018;23.986;2023-03-01T06:58:22;35.92;;;27.38;;
2213;SDS011;1113;42.018;23.986;2023-03-01T07:00:49;37.45;;;28.88;;
2213;SDS011;1113;42.018;23.986;2023-03-01T07:03:16;34.88;;;26.33;;
2213;SDS011;1113;42.018;23.986;2023-03-01T07:05:42;34.08;;;23.55;;
2213;SDS011;1113;42.018;23.986;2023-03-01T07:08:09;36.03;;;23.98;;
2213;SDS011;1113;42.018;23.986;2023-03-01T07:10:39;37.47;;;24.77;;
2213;SDS011;1113;42.018;23.986;2023-03-01T07:13:07;34.83;;;23.60;;
2213;SDS011;1113;42.018;23.986;2023-03-01T07:15:34;45.60;;;29.17;;
2213;SDS011;1113;42.018;23.986;2023-03-01T07:18:01;39.70;;;26.15;;
2213;SDS011;1113;42.018;23.986;2023-03-01T07:20:28;41.15;;;27.90;;
2213;SDS011;1113;42.018;23.986;2023-03-01T07:22:55;37.30;;;25.65;;
2213;SDS011;1113;42.018;23.986;2023-03-01T07:25:23;33.75;;;24.80;;
2213;SDS011;1113;42.018;23.986;2023-03-01T07:27:50;24.10;;;18.40;;
2213;SDS011;1113;42.018;23.986;2023-03-01T07:30:19;20.98;;;17.77;;
2213;SDS011;1113;42.018;23.986;2023-03-01T07:32:46;23.05;;;16.77;;
2213;SDS011;1113;42.018;23.986;2023-03-01T07:35:13;16.83;;;13.63;;
2213;SDS011;1113;42.018;23.986;2023-03-01T07:37:40;17.20;;;14.50;;
2213;SDS011;1113;42.018;23.986;2023-03-01T07:40:08;19.77;;;15.40;;
2213;SDS011;1113;42.018;23.986;2023-03-01T07:42:36;20.48;;;16.60;;
2213;SDS011;1113;42.018;23.986;2023-03-01T07:45:03;20.40;;;17.30;;
2213;SDS011;1113;42.018;23.986;2023-03-01T07:47:32;19.13;;;16.02;;
2213;SDS011;1113;42.018;23.986;2023-03-01T07:49:58;26.77;;;21.50;;
2213;SDS011;1113;42.018;23.986;2023-03-01T07:52:26;22.00;;;16.40;;
2213;SDS011;1113;42.018;23.986;2023-03-01T07:54:53;20.08;;;16.95;;
2213;SDS011;1113;42.018;23.986;2023-03-01T07:57:19;24.42;;;19.80;;
2213;SDS011;1113;42.018;23.986;2023-03-01T07:59:46;31.17;;;23.85;;
2213;SDS011;1113;42.018;23.986;2023-03-01T08:02:13;42.47;;;28.95;;
2213;SDS011;1113;42.018;23.986;2023-03-01T08:04:42;46.15;;;33.10;;
2213;SDS011;1113;42.018;23.986;2023-03-01T08:07:09;34.45;;;24.15;;
2213;SDS011;1113;42.018;23.986;2023-03-01T08:09:35;24.90;;;17.85;;
2213;SDS011;1113;42.018;23.986;2023-03-01T08:12:03;19.83;;;15.63;;
2213;SDS011;1113;42.018;23.986;2023-03-01T08:14:30;23.80;;;16.63;;
2213;SDS011;1113;42.018;23.986;2023-03-01T08:16:57;26.85;;;20.25;;
2213;SDS011;1113;42.018;23.986;2023-03-01T08:19:24;33.53;;;27.65;;
2213;SDS011;1113;42.018;23.986;2023-03-01T08:21:54;37.40;;;28.60;;
2213;SDS011;1113;42.018;23.986;2023-03-01T08:24:23;36.47;;;26.60;;
2213;SDS011;1113;42.018;23.986;2023-03-01T08:26:50;34.38;;;26.13;;
2213;SDS011;1113;42.018;23.986;2023-03-01T08:29:17;36.60;;;27.27;;
2213;SDS011;1113;42.018;23.986;2023-03-01T08:31:43;26.70;;;20.90;;
2213;SDS011;1113;42.018;23.986;2023-03-01T08:34:11;32.03;;;23.37;;
2213;SDS011;1113;42.018;23.986;2023-03-01T08:36:41;24.43;;;21.77;;
2213;SDS011;1113;42.018;23.986;2023-03-01T08:39:11;27.80;;;21.20;;
2213;SDS011;1113;42.018;23.986;2023-03-01T08:41:40;33.00;;;24.00;;
2213;SDS011;1113;42.018;23.986;2023-03-01T08:44:08;29.38;;;23.05;;
2213;SDS011;1113;42.018;23.986;2023-03-01T08:46:37;26.00;;;21.17;;
2213;SDS011;1113;42.018;23.986;2023-03-01T08:49:05;21.70;;;16.90;;
2213;SDS011;1113;42.018;23.986;2023-03-01T08:51:33;22.70;;;18.53;;
2213;SDS011;1113;42.018;23.986;2023-03-01T08:54:01;23.60;;;19.50;;
2213;SDS011;1113;42.018;23.986;2023-03-01T08:56:30;19.83;;;16.30;;
2213;SDS011;1113;42.018;23.986;2023-03-01T08:58:58;25.20;;;16.87;;
2213;SDS011;1113;42.018;23.986;2023-03-01T09:01:25;20.00;;;14.23;;
2213;SDS011;1113;42.018;23.986;2023-03-01T09:03:51;20.80;;;16.33;;
2213;SDS011;1113;42.018;23.986;2023-03-01T09:06:18;20.10;;;15.20;;
2213;SDS011;1113;42.018;23.986;2023-03-01T09:08:46;17.33;;;14.10;;
2213;SDS011;1113;42.018;23.986;2023-03-01T09:11:16;16.67;;;13.63;;
2213;SDS011;1113;42.018;23.986;2023-03-01T09:13:46;14.77;;;12.23;;
2213;SDS011;1113;42.018;23.986;2023-03-01T09:16:14;15.53;;;13.00;;
2213;SDS011;1113;42.018;23.986;2023-03-01T09:18:43;19.17;;;14.00;;
2213;SDS011;1113;42.018;23.986;2023-03-01T09:21:10;17.70;;;14.40;;
2213;SDS011;1113;42.018;23.986;2023-03-01T09:23:39;13.87;;;11.33;;
2213;SDS011;1113;42.018;23.986;2023-03-01T09:26:07;15.47;;;10.60;;
2213;SDS011;1113;42.018;23.986;2023-03-01T09:28:35;14.63;;;10.70;;
2213;SDS011;1113;42.018;23.986;2023-03-01T09:31:04;14.80;;;10.30;;
2213;SDS011;1113;42.018;23.986;2023-03-01T09:33:31;10.90;;;8.50;;
2213;SDS011;1113;42.018;23.986;2023-03-01T09:35:59;9.37;;;7.50;;
2213;SDS011;1113;42.018;23.986;2023-03-01T09:38:27;8.60;;;6.63;;
2213;SDS011;1113;42.018;23.986;2023-03-01T09:40:54;9.00;;;6.90;;
2213;SDS011;1113;42.018;23.986;2023-03-01T09:43:23;10.90;;;7.27;;
2213;SDS011;1113;42.018;23.986;2023-03-01T09:45:55;13.30;;;8.40;;
2213;SDS011;1113;42.018;23.986;2023-03-01T09:48:33;7.93;;;4.57;;
2213;SDS011;1113;42.018;23.986;2023-03-01T09:51:08;9.70;;;7.53;;
2213;SDS011;1113;42.018;23.986;2023-03-01T09:53:43;8.97;;;8.00;;
2213;SDS011;1113;42.018;23.986;2023-03-01T09:56:12;12.13;;;8.90;;
2213;SDS011;1113;42.018;23.986;2023-03-01T09:58:47;11.00;;;8.20;;
2213;SDS011;1113;42.018;23.986;2023-03-01T10:01:26;13.20;;;8.67;;
2213;SDS011;1113;42.018;23.986;2023-03-01T10:07:05;71.00;;;36.80;;
2213;SDS011;1113;42.018;23.986;2023-03-01T10:09:44;29.57;;;18.17;;
2213;SDS011;1113;42.018;23.986;2023-03-01T10:12:12;28.10;;;17.60;;
2213;SDS011;1113;42.018;23.986;2023-03-01T10:14:43;23.03;;;14.90;;
2213;SDS011;1113;42.018;23.986;2023-03-01T10:17:20;13.43;;;8.63;;
2213;SDS011;1113;42.018;23.986;2023-03-01T10:19:55;14.23;;;8.43;;
2213;SDS011;1113;42.018;23.986;2023-03-01T10:22:24;11.00;;;8.23;;
2213;SDS011;1113;42.018;23.986;2023-03-01T10:24:54;12.97;;;9.17;;
2213;SDS011;1113;42.018;23.986;2023-03-01T10:27:24;10.23;;;7.80;;
2213;SDS011;1113;42.018;23.986;2023-03-01T10:29:54;13.83;;;8.87;;
2213;SDS011;1113;42.018;23.986;2023-03-01T10:32:28;17.30;;;10.10;;
2213;SDS011;1113;42.018;23.986;2023-03-01T10:34:57;19.93;;;11.33;;
2213;SDS011;1113;42.018;23.986;2023-03-01T10:37:25;16.20;;;11.90;;
2213;SDS011;1113;42.018;23.986;2023-03-01T10:40:00;25.73;;;17.73;;
2213;SDS011;1113;42.018;23.986;2023-03-01T10:42:33;30.23;;;20.13;;
2213;SDS011;1113;42.018;23.986;2023-03-01T10:45:15;32.80;;;20.20;;
2213;SDS011;1113;42.018;23.986;2023-03-01T10:48:02;13.03;;;9.00;;
2213;SDS011;1113;42.018;23.986;2023-03-01T10:50:32;15.27;;;9.67;;
2213;SDS011;1113;42.018;23.986;2023-03-01T10:53:00;15.00;;;7.70;;
2213;SDS011;1113;42.018;23.986;2023-03-01T10:55:31;15.13;;;9.53;;
2213;SDS011;1113;42.018;23.986;2023-03-01T10:58:09;10.83;;;7.47;;
2213;SDS011;1113;42.018;23.986;2023-03-01T11:00:49;14.30;;;10.90;;
2213;SDS011;1113;42.018;23.986;2023-03-01T11:03:18;10.27;;;8.87;;
2213;SDS011;1113;42.018;23.986;2023-03-01T11:05:54;11.27;;;8.30;;
2213;SDS011;1113;42.018;23.986;2023-03-01T11:08:41;15.23;;;10.93;;
2213;SDS011;1113;42.018;23.986;2023-03-01T11:11:14;20.57;;;13.53;;
2213;SDS011;1113;42.018;23.986;2023-03-01T11:13:48;12.07;;;7.53;;
2213;SDS011;1113;42.018;23.986;2023-03-01T11:16:22;12.07;;;8.23;;
2213;SDS011;1113;42.018;23.986;2023-03-01T11:19:12;11.97;;;8.07;;
2213;SDS011;1113;42.018;23.986;2023-03-01T11:21:44;16.53;;;9.03;;
2213;SDS011;1113;42.018;23.986;2023-03-01T11:24:18;13.30;;;8.13;;
2213;SDS011;1113;42.018;23.986;2023-03-01T11:26:47;19.10;;;10.67;;
2213;SDS011;1113;42.018;23.986;2023-03-01T11:29:21;12.27;;;7.50;;
2213;SDS011;1113;42.018;23.986;2023-03-01T11:31:54;13.20;;;9.33;;
2213;SDS011;1113;42.018;23.986;2023-03-01T11:34:29;11.87;;;8.30;;
2213;SDS011;1113;42.018;23.986;2023-03-01T11:37:09;15.47;;;10.10;;
2213;SDS011;1113;42.018;23.986;2023-03-01T11:39:43;14.53;;;9.73;;
2213;SDS011;1113;42.018;23.986;2023-03-01T11:42:19;24.90;;;17.43;;
2213;SDS011;1113;42.018;23.986;2023-03-01T11:44:52;11.80;;;8.40;;
2213;SDS011;1113;42.018;23.986;2023-03-01T11:47:25;15.50;;;11.70;;
2213;SDS011;1113;42.018;23.986;2023-03-01T11:50:08;18.30;;;11.60;;
2213;SDS011;1113;42.018;23.986;2023-03-01T11:52:54;15.67;;;11.40;;
2213;SDS011;1113;42.018;23.986;2023-03-01T11:55:36;16.73;;;11.80;;
2213;SDS011;1113;42.018;23.986;2023-03-01T11:58:17;17.43;;;12.17;;
2213;SDS011;1113;42.018;23.986;2023-03-01T12:06:57;17.20;;;11.63;;
2213;SDS011;1113;42.018;23.986;2023-03-01T12:12:27;15.10;;;9.50;;
2213;SDS011;1113;42.018;23.986;2023-03-01T12:15:11;16.50;;;11.97;;
2213;SDS011;1113;42.018;23.986;2023-03-01T12:18:02;16.83;;;9.60;;
2213;SDS011;1113;42.018;23.986;2023-03-01T12:20:41;19.37;;;14.87;;
2213;SDS011;1113;42.018;23.986;2023-03-01T12:23:33;23.83;;;15.47;;
2213;SDS011;1113;42.018;23.986;2023-03-01T12:26:16;18.63;;;12.57;;
2213;SDS011;1113;42.018;23.986;2023-03-01T12:28:52;22.80;;;14.50;;
2213;SDS011;1113;42.018;23.986;2023-03-01T12:31:40;18.47;;;11.30;;
2213;SDS011;1113;42.018;23.986;2023-03-01T12:34:28;15.47;;;9.83;;
2213;SDS011;1113;42.018;23.986;2023-03-01T12:37:25;15.63;;;9.30;;
2213;SDS011;1113;42.018;23.986;2023-03-01T12:40:09;15.50;;;9.37;;
2213;SDS011;1113;42.018;23.986;2023-03-01T12:42:59;16.50;;;10.47;;
2213;SDS011;1113;42.018;23.986;2023-03-01T12:45:56;22.10;;;14.23;;
2213;SDS011;1113;42.018;23.986;2023-03-01T12:52:16;14.97;;;10.70;;
2213;SDS011;1113;42.018;23.986;2023-03-01T12:54:49;24.03;;;13.03;;
2213;SDS011;1113;42.018;23.986;2023-03-01T12:57:21;18.23;;;11.57;;
2213;SDS011;1113;42.018;23.986;2023-03-01T13:00:06;12.90;;;9.27;;
2213;SDS011;1113;42.018;23.986;2023-03-01T13:02:47;16.50;;;10.53;;
2213;SDS011;1113;42.018;23.986;2023-03-01T13:05:25;16.57;;;10.73;;
2213;SDS011;1113;42.018;23.986;2023-03-01T13:08:05;12.83;;;8.00;;
2213;SDS011;1113;42.018;23.986;2023-03-01T13:10:39;13.83;;;9.83;;
2213;SDS011;1113;42.018;23.986;2023-03-01T13:13:18;15.97;;;8.80;;
2213;SDS011;1113;42.018;23.986;2023-03-01T13:15:50;16.60;;;9.97;;
2213;SDS011;1113;42.018;23.986;2023-03-01T13:18:29;16.83;;;10.30;;
2213;SDS011;1113;42.018;23.986;2023-03-01T13:21:02;16.33;;;9.80;;
2213;SDS011;1113;42.018;23.986;2023-03-01T13:23:31;18.23;;;10.73;;
2213;SDS011;1113;42.018;23.986;2023-03-01T13:26:05;15.50;;;11.47;;
2213;SDS011;1113;42.018;23.986;2023-03-01T13:28:41;15.00;;;9.27;;
2213;SDS011;1113;42.018;23.986;2023-03-01T13:37:57;22.50;;;14.50;;
2213;SDS011;1113;42.018;23.986;2023-03-01T13:41:04;28.17;;;19.90;;
2213;SDS011;1113;42.018;23.986;2023-03-01T13:43:31;20.93;;;15.03;;
2213;SDS011;1113;42.018;23.986;2023-03-01T13:46:16;16.97;;;10.40;;
2213;SDS011;1113;42.018;23.986;2023-03-01T13:48:50;15.67;;;9.80;;
2213;SDS011;1113;42.018;23.986;2023-03-01T13:51:22;15.80;;;9.50;;
2213;SDS011;1113;42.018;23.986;2023-03-01T13:53:51;16.97;;;10.50;;
2213;SDS011;1113;42.018;23.986;2023-03-01T13:56:21;18.20;;;12.23;;
2213;SDS011;1113;42.018;23.986;2023-03-01T13:58:52;18.80;;;12.20;;
2213;SDS011;1113;42.018;23.986;2023-03-01T14:01:22;15.17;;;9.80;;
2213;SDS011;1113;42.018;23.986;2023-03-01T14:03:51;16.73;;;11.73;;
2213;SDS011;1113;42.018;23.986;2023-03-01T14:06:20;15.13;;;10.30;;
2213;SDS011;1113;42.018;23.986;2023-03-01T14:08:50;26.90;;;16.53;;
2213;SDS011;1113;42.018;23.986;2023-03-01T14:14:25;17.30;;;11.90;;
2213;SDS011;1113;42.018;23.986;2023-03-01T14:17:04;12.93;;;8.53;;
2213;SDS011;1113;42.018;23.986;2023-03-01T14:19:39;14.97;;;10.03;;
2213;SDS011;1113;42.018;23.986;2023-03-01T14:22:15;20.43;;;13.77;;
2213;SDS011;1113;42.018;23.986;2023-03-01T14:24:46;22.50;;;14.47;;
2213;SDS011;1113;42.018;23.986;2023-03-01T14:27:15;16.83;;;13.50;;
2213;SDS011;1113;42.018;23.986;2023-03-01T14:29:43;13.43;;;8.20;;
2213;SDS011;1113;42.018;23.986;2023-03-01T14:32:11;29.73;;;18.00;;
2213;SDS011;1113;42.018;23.986;2023-03-01T14:34:44;19.80;;;13.57;;
2213;SDS011;1113;42.018;23.986;2023-03-01T14:37:19;17.83;;;12.90;;
2213;SDS011;1113;42.018;23.986;2023-03-01T14:39:48;17.97;;;12.50;;
2213;SDS011;1113;42.018;23.986;2023-03-01T14:42:15;16.73;;;12.10;;
2213;SDS011;1113;42.018;23.986;2023-03-01T14:44:43;22.80;;;15.20;;
2213;SDS011;1113;42.018;23.986;2023-03-01T14:47:14;21.40;;;13.83;;
2213;SDS011;1113;42.018;23.986;2023-03-01T14:49:47;16.70;;;12.00;;
2213;SDS011;1113;42.018;23.986;2023-03-01T14:52:21;20.60;;;13.17;;
2213;SDS011;1113;42.018;23.986;2023-03-01T14:54:52;16.00;;;11.10;;
2213;SDS011;1113;42.018;23.986;2023-03-01T14:57:21;20.93;;;14.33;;
2213;SDS011;1113;42.018;23.986;2023-03-01T14:59:49;15.00;;;11.73;;
2213;SDS011;1113;42.018;23.986;2023-03-01T15:02:21;19.87;;;12.53;;
2213;SDS011;1113;42.018;23.986;2023-03-01T15:04:50;22.70;;;14.03;;
2213;SDS011;1113;42.018;23.986;2023-03-01T15:07:18;18.13;;;13.37;;
2213;SDS011;1113;42.018;23.986;2023-03-01T15:09:47;20.20;;;12.90;;
2213;SDS011;1113;42.018;23.986;2023-03-01T15:12:36;16.90;;;12.17;;
2213;SDS011;1113;42.018;23.986;2023-03-01T15:18:01;17.73;;;12.53;;
2213;SDS011;1113;42.018;23.986;2023-03-01T15:20:33;18.30;;;13.37;;
2213;SDS011;1113;42.018;23.986;2023-03-01T15:23:04;21.90;;;14.60;;
2213;SDS011;1113;42.018;23.986;2023-03-01T15:25:32;18.55;;;12.88;;
2213;SDS011;1113;42.018;23.986;2023-03-01T15:28:00;17.70;;;14.63;;
2213;SDS011;1113;42.018;23.986;2023-03-01T15:30:29;21.27;;;14.93;;
2213;SDS011;1113;42.018;23.986;2023-03-01T15:35:58;23.48;;;17.38;;
2213;SDS011;1113;42.018;23.986;2023-03-01T15:38:31;23.73;;;15.33;;
2213;SDS011;1113;42.018;23.986;2023-03-01T15:41:01;21.85;;;15.63;;
2213;SDS011;1113;42.018;23.986;2023-03-01T15:43:47;20.40;;;13.75;;